Time;durP1;ratioP1;P1;durP2;ratioP2;P2;SDS_P1;SDS_P2;PMS_P1;PMS_P2;Temp;Humidity;BMP_temperature;BMP_pressure;BME280_temperature;BME280_humidity;BME280_pressure;Samples;Min_cycle;Max_cycle;Signal;HPM_P1;HPM_P2
2021/11/18 00:00:47;;;;;;;2.47;1.15;;;18.70;68.90;;;;;;6217753;23;20431;-69
2021/11/18 00:03:13;;;;;;;3.22;1.60;;;18.80;69.00;;;;;;6191473;23;20324;-68
2021/11/18 00:05:39;;;;;;;3.33;1.35;;;18.80;69.00;;;;;;6217300;23;20049;-68
2021/11/18 00:08:05;;;;;;;2.75;1.50;;;18.80;69.00;;;;;;6166513;23;20009;-69
2021/11/18 00:10:32;;;;;;;1.75;1.33;;;18.70;69.00;;;;;;6191413;23;20009;-69
2021/11/18 00:12:59;;;;;;;3.75;1.50;;;18.70;69.10;;;;;;6165970;23;20380;-69
2021/11/18 00:15:26;;;;;;;2.17;1.33;;;18.70;69.10;;;;;;6166720;23;20004;-69
2021/11/18 00:18:03;;;;;;;2.47;1.33;;;18.70;69.10;;;;;;6217529;23;20510;-69
2021/11/18 00:20:30;;;;;;;3.53;1.45;;;18.70;69.10;;;;;;6191244;23;20087;-69
2021/11/18 00:22:56;;;;;;;1.75;1.40;;;18.70;69.20;;;;;;6191005;23;20451;-69
2021/11/18 00:25:22;;;;;;;2.92;1.33;;;18.70;69.20;;;;;;6190926;23;20017;-69
2021/11/18 00:27:48;;;;;;;3.28;1.45;;;18.70;69.20;;;;;;6166339;23;20399;-69
2021/11/18 00:30:13;;;;;;;3.17;1.40;;;18.70;69.20;;;;;;6190983;23;20000;-69
2021/11/18 00:32:39;;;;;;;2.88;1.33;;;18.70;69.20;;;;;;6166481;23;20004;-69
2021/11/18 00:35:06;;;;;;;2.75;1.33;;;18.70;69.30;;;;;;6189225;23;20031;-69
2021/11/18 00:37:32;;;;;;;2.05;1.35;;;18.70;69.30;;;;;;6164864;23;20062;-69
2021/11/18 00:39:57;;;;;;;2.65;1.45;;;18.70;69.40;;;;;;6189380;23;20079;-69
2021/11/18 00:42:23;;;;;;;3.83;1.60;;;18.70;69.40;;;;;;6215876;23;20028;-69
2021/11/18 00:44:49;;;;;;;2.78;1.15;;;18.70;69.40;;;;;;6215953;23;19996;-69
2021/11/18 00:47:14;;;;;;;2.38;1.27;;;18.70;69.40;;;;;;6215795;23;20007;-69
2021/11/18 00:49:40;;;;;;;2.00;1.13;;;18.70;69.50;;;;;;6215452;23;20131;-69
2021/11/18 00:52:05;;;;;;;1.92;1.20;;;18.60;69.40;;;;;;6189355;23;20007;-69
2021/11/18 00:54:31;;;;;;;2.03;1.20;;;18.70;69.40;;;;;;6215855;23;20011;-69
2021/11/18 00:56:58;;;;;;;3.03;1.40;;;18.60;69.40;;;;;;6215823;23;20059;-68
2021/11/18 00:59:24;;;;;;;1.88;1.30;;;18.60;69.50;;;;;;6215634;23;20004;-68
2021/11/18 01:01:51;;;;;;;2.00;1.25;;;18.60;69.50;;;;;;6189222;23;20340;-68
2021/11/18 01:04:18;;;;;;;1.38;1.10;;;18.60;69.50;;;;;;6189169;23;20007;-68
2021/11/18 01:06:43;;;;;;;1.00;0.90;;;18.60;69.50;;;;;;6189426;23;20389;-68
2021/11/18 01:09:09;;;;;;;1.50;1.00;;;18.60;69.50;;;;;;6215575;23;20021;-68
2021/11/18 01:11:35;;;;;;;2.00;1.45;;;18.60;69.60;;;;;;6164344;23;20115;-68
2021/11/18 01:14:01;;;;;;;1.92;1.23;;;18.60;69.70;;;;;;6189187;23;20027;-68
2021/11/18 01:16:28;;;;;;;3.13;1.30;;;18.60;69.60;;;;;;6189242;23;20067;-68
2021/11/18 01:18:54;;;;;;;2.35;1.45;;;18.60;69.60;;;;;;6215123;23;20084;-69
2021/11/18 01:21:21;;;;;;;3.10;1.30;;;18.50;69.70;;;;;;6189143;23;20039;-69
2021/11/18 01:23:47;;;;;;;2.05;1.40;;;18.60;69.70;;;;;;6188900;23;20391;-69
2021/11/18 01:26:14;;;;;;;1.23;1.10;;;18.60;69.80;;;;;;6187415;23;20013;-69
2021/11/18 01:28:40;;;;;;;2.53;1.10;;;18.60;69.90;;;;;;6214358;23;20411;-69
2021/11/18 01:31:05;;;;;;;1.95;1.48;;;18.60;69.70;;;;;;6187858;23;20043;-69
2021/11/18 01:33:31;;;;;;;4.45;1.77;;;18.60;69.80;;;;;;6187533;23;20005;-69
2021/11/18 01:35:57;;;;;;;1.92;1.42;;;18.50;69.80;;;;;;6187760;23;20004;-69
2021/11/18 01:38:22;;;;;;;2.47;1.13;;;18.50;69.70;;;;;;6162908;23;20084;-69
2021/11/18 01:40:50;;;;;;;2.08;1.20;;;18.50;69.80;;;;;;6187899;23;20079;-69
2021/11/18 01:43:17;;;;;;;2.50;1.30;;;18.50;69.80;;;;;;6163369;23;20005;-69
2021/11/18 01:45:43;;;;;;;2.63;1.40;;;18.60;69.90;;;;;;6163388;23;20000;-69
2021/11/18 01:48:09;;;;;;;2.30;1.40;;;18.50;69.80;;;;;;6187090;23;20340;-69
2021/11/18 01:50:36;;;;;;;2.38;1.15;;;18.50;69.90;;;;;;6187762;23;20012;-69
2021/11/18 01:53:06;;;;;;;2.42;1.38;;;18.50;69.80;;;;;;6162985;23;20451;-69
2021/11/18 01:55:32;;;;;;;5.72;1.35;;;18.50;69.90;;;;;;6163733;23;20008;-69
2021/11/18 01:57:58;;;;;;;3.13;1.60;;;18.50;69.90;;;;;;6163083;23;20005;-69
2021/11/18 02:00:36;;;;;;;3.47;1.30;;;18.50;69.90;;;;;;6213834;23;20099;-69
2021/11/18 02:03:02;;;;;;;2.95;1.48;;;18.50;70.00;;;;;;6187947;23;20007;-69
2021/11/18 02:05:34;;;;;;;1.80;1.13;;;18.50;70.00;;;;;;6187546;23;19997;-69
2021/11/18 02:08:00;;;;;;;1.85;1.35;;;18.50;70.00;;;;;;6214449;23;20072;-69
2021/11/18 02:10:30;;;;;;;2.65;1.30;;;18.50;70.00;;;;;;6214274;23;20011;-69
2021/11/18 02:13:00;;;;;;;2.58;1.40;;;18.50;70.10;;;;;;6163813;23;20427;-69
2021/11/18 02:15:35;;;;;;;1.85;1.30;;;18.50;70.00;;;;;;6163593;23;20417;-69
2021/11/18 02:18:01;;;;;;;2.95;1.42;;;18.50;70.00;;;;;;6188130;23;20000;-69
2021/11/18 02:20:29;;;;;;;2.95;1.35;;;18.50;70.10;;;;;;6187723;23;20043;-69
2021/11/18 02:22:54;;;;;;;1.63;1.48;;;18.50;70.10;;;;;;6187586;23;20024;-69
2021/11/18 02:25:24;;;;;;;4.88;1.45;;;18.50;70.10;;;;;;6187308;23;20447;-69
2021/11/18 02:27:50;;;;;;;5.60;1.58;;;18.50;70.10;;;;;;6214534;23;20068;-69
2021/11/18 02:30:15;;;;;;;5.60;1.50;;;18.40;70.10;;;;;;6188186;23;20051;-69
2021/11/18 02:32:42;;;;;;;2.33;1.35;;;18.50;70.10;;;;;;6214952;23;20075;-69
2021/11/18 02:35:21;;;;;;;2.13;1.27;;;18.40;70.10;;;;;;6188481;23;20000;-69
2021/11/18 02:37:47;;;;;;;4.00;1.40;;;18.40;70.20;;;;;;6188971;23;19997;-69
2021/11/18 02:40:13;;;;;;;3.58;1.20;;;18.40;70.20;;;;;;6164138;23;20630;-69
2021/11/18 02:42:40;;;;;;;6.45;1.50;;;18.40;70.30;;;;;;6164288;23;19997;-69
2021/11/18 02:45:09;;;;;;;3.25;1.27;;;18.40;70.20;;;;;;6214904;23;20004;-69
2021/11/18 02:47:34;;;;;;;2.13;1.30;;;18.50;70.20;;;;;;6164327;23;20050;-69
2021/11/18 02:50:00;;;;;;;2.08;1.48;;;18.40;70.30;;;;;;6189048;23;20009;-69
2021/11/18 02:52:29;;;;;;;2.50;1.17;;;18.40;70.30;;;;;;6188422;23;20325;-69
2021/11/18 02:55:00;;;;;;;2.05;1.20;;;18.40;70.30;;;;;;6188715;23;20012;-69
2021/11/18 02:57:25;;;;;;;3.15;1.20;;;18.40;70.30;;;;;;6139299;23;20055;-69
2021/11/18 02:59:51;;;;;;;2.28;1.45;;;18.40;70.30;;;;;;6163203;23;20344;-69
2021/11/18 03:02:17;;;;;;;8.63;1.58;;;18.40;70.30;;;;;;6214759;23;20035;-69
2021/11/18 03:04:42;;;;;;;3.13;1.40;;;18.40;70.30;;;;;;6188808;23;20027;-69
2021/11/18 03:07:08;;;;;;;2.60;1.23;;;18.40;70.40;;;;;;6214938;23;20036;-69
2021/11/18 03:09:34;;;;;;;2.65;1.40;;;18.40;70.40;;;;;;6214951;23;20004;-69
2021/11/18 03:11:59;;;;;;;3.85;1.13;;;18.40;70.40;;;;;;6188561;23;20001;-69
2021/11/18 03:14:26;;;;;;;1.83;1.10;;;18.40;70.40;;;;;;6163161;23;20008;-69
2021/11/18 03:16:52;;;;;;;2.42;1.23;;;18.40;70.40;;;;;;6163803;23;20517;-68
2021/11/18 03:19:18;;;;;;;4.13;1.30;;;18.30;70.40;;;;;;6188248;23;20001;-69
2021/11/18 03:21:43;;;;;;;3.30;1.23;;;18.30;70.40;;;;;;6214974;23;20350;-69
2021/11/18 03:24:09;;;;;;;1.80;1.20;;;18.30;70.40;;;;;;6188324;23;20377;-69
2021/11/18 03:26:35;;;;;;;2.25;1.02;;;18.30;70.40;;;;;;6183042;23;20085;-69
2021/11/18 03:29:01;;;;;;;5.00;1.30;;;18.30;70.50;;;;;;6183098;23;20005;-69
2021/11/18 03:31:28;;;;;;;2.50;1.42;;;18.30;70.50;;;;;;6183088;23;20044;-69
2021/11/18 03:33:56;;;;;;;2.58;1.42;;;18.30;70.50;;;;;;6184443;23;20449;-69
2021/11/18 03:36:23;;;;;;;1.85;1.17;;;18.30;70.50;;;;;;6181611;23;20040;-69
2021/11/18 03:38:50;;;;;;;4.20;1.27;;;18.30;70.50;;;;;;6184274;23;20005;-69
2021/11/18 03:41:16;;;;;;;3.95;1.52;;;18.30;70.60;;;;;;6183059;23;19998;-69
2021/11/18 03:43:44;;;;;;;3.03;1.30;;;18.30;70.60;;;;;;6182316;23;20005;-69
2021/11/18 03:46:10;;;;;;;2.78;1.38;;;18.30;70.60;;;;;;6159042;23;20092;-69
2021/11/18 03:48:37;;;;;;;4.47;1.80;;;18.30;70.70;;;;;;6183218;23;20313;-69
2021/11/18 03:51:04;;;;;;;3.25;1.15;;;18.30;70.60;;;;;;6182741;23;20171;-69
2021/11/18 03:53:33;;;;;;;4.43;1.40;;;18.30;70.70;;;;;;6182575;23;20005;-69
2021/11/18 03:55:59;;;;;;;2.72;1.40;;;18.30;70.60;;;;;;6184470;23;20325;-69
2021/11/18 03:58:25;;;;;;;3.03;1.40;;;18.30;70.70;;;;;;6183679;23;20184;-69
2021/11/18 04:00:50;;;;;;;2.78;1.50;;;18.40;70.80;;;;;;6182704;23;20085;-69
2021/11/18 04:03:16;;;;;;;8.63;1.50;;;18.30;70.70;;;;;;6182922;23;19998;-69
2021/11/18 04:05:42;;;;;;;3.67;1.52;;;18.30;70.70;;;;;;6182478;23;20001;-69
2021/11/18 04:08:08;;;;;;;3.15;1.98;;;18.30;70.70;;;;;;6182758;23;20005;-69
2021/11/18 04:10:34;;;;;;;3.95;1.50;;;18.30;70.80;;;;;;6184795;23;20000;-69
2021/11/18 04:13:00;;;;;;;3.70;1.60;;;18.30;70.70;;;;;;6184294;23;20005;-69
2021/11/18 04:15:26;;;;;;;3.17;1.67;;;18.30;70.80;;;;;;6184661;23;20467;-69
2021/11/18 04:17:52;;;;;;;2.28;1.05;;;18.30;70.80;;;;;;6185961;23;20344;-69
2021/11/18 04:20:17;;;;;;;3.65;1.70;;;18.30;70.80;;;;;;6134965;23;20052;-69
2021/11/18 04:22:44;;;;;;;4.28;1.50;;;18.30;70.80;;;;;;6184498;23;19998;-69
2021/11/18 04:25:11;;;;;;;2.92;1.40;;;18.30;70.80;;;;;;6187655;23;20017;-69
2021/11/18 04:27:36;;;;;;;4.50;1.63;;;18.30;70.80;;;;;;6188765;23;20008;-69
2021/11/18 04:30:03;;;;;;;3.17;1.30;;;18.30;70.90;;;;;;6189075;23;20008;-69
2021/11/18 04:32:29;;;;;;;5.55;1.70;;;18.30;70.80;;;;;;6162975;23;20011;-69
2021/11/18 04:34:55;;;;;;;3.58;1.48;;;18.30;70.90;;;;;;6189282;23;20005;-69
2021/11/18 04:37:21;;;;;;;3.75;1.63;;;18.30;70.90;;;;;;6164829;23;20340;-69
2021/11/18 04:39:46;;;;;;;3.25;1.35;;;18.30;71.00;;;;;;6164613;23;20008;-69
2021/11/18 04:42:13;;;;;;;6.15;1.45;;;18.30;70.90;;;;;;6215444;23;20007;-69
2021/11/18 04:44:38;;;;;;;3.78;1.27;;;18.30;71.00;;;;;;6189481;23;20432;-69
2021/11/18 04:47:07;;;;;;;8.27;1.75;;;18.30;71.00;;;;;;6189436;23;20008;-69
2021/11/18 04:49:34;;;;;;;5.20;1.30;;;18.30;71.00;;;;;;6189414;23;20084;-69
2021/11/18 04:52:00;;;;;;;3.30;1.38;;;18.30;71.00;;;;;;6189494;23;20007;-69
2021/11/18 04:54:25;;;;;;;4.45;1.35;;;18.20;71.00;;;;;;6189089;23;20009;-69
2021/11/18 04:56:51;;;;;;;3.95;1.30;;;18.20;71.00;;;;;;6215751;23;20000;-69
2021/11/18 04:59:17;;;;;;;5.35;1.90;;;18.20;71.00;;;;;;6189310;23;20001;-69
2021/11/18 05:01:42;;;;;;;3.22;1.30;;;18.20;71.00;;;;;;6189001;23;20001;-69
2021/11/18 05:04:08;;;;;;;2.60;1.30;;;18.20;71.00;;;;;;6215830;23;20344;-69
2021/11/18 05:06:34;;;;;;;3.50;1.67;;;18.20;71.00;;;;;;6164294;23;20036;-69
2021/11/18 05:08:59;;;;;;;5.63;1.27;;;18.20;71.10;;;;;;6215331;23;20008;-69
2021/11/18 05:11:25;;;;;;;2.00;1.20;;;18.20;71.10;;;;;;6189130;23;20436;-69
2021/11/18 05:13:51;;;;;;;2.95;1.23;;;18.20;71.00;;;;;;6189158;23;20400;-69
2021/11/18 05:16:17;;;;;;;3.20;1.40;;;18.20;71.10;;;;;;6164430;23;20011;-69
2021/11/18 05:18:43;;;;;;;4.43;1.30;;;18.20;71.10;;;;;;6164213;23;20009;-69
2021/11/18 05:21:10;;;;;;;5.82;1.67;;;18.20;71.20;;;;;;6189035;23;20004;-69
2021/11/18 05:23:36;;;;;;;5.05;1.60;;;18.20;71.20;;;;;;6164106;23;19997;-69
2021/11/18 05:26:02;;;;;;;3.97;1.63;;;18.20;71.20;;;;;;6189169;23;20060;-69
2021/11/18 05:28:28;;;;;;;2.05;1.30;;;18.20;71.20;;;;;;6188961;23;20078;-69
2021/11/18 05:30:54;;;;;;;3.45;1.60;;;18.20;71.20;;;;;;6164091;23;20028;-69
2021/11/18 05:33:20;;;;;;;4.40;1.30;;;18.20;71.20;;;;;;6189075;23;20436;-69
2021/11/18 05:35:46;;;;;;;3.53;1.20;;;18.20;71.20;;;;;;6164020;23;20039;-69
2021/11/18 05:38:12;;;;;;;2.00;1.40;;;18.20;71.20;;;;;;6188638;23;20001;-69
2021/11/18 05:40:38;;;;;;;4.60;1.75;;;18.20;71.20;;;;;;6189042;23;20004;-69
2021/11/18 05:43:03;;;;;;;3.70;1.33;;;18.20;71.30;;;;;;6188904;23;20001;-69
2021/11/18 05:45:30;;;;;;;1.55;1.05;;;18.20;71.30;;;;;;6215408;23;20466;-69
2021/11/18 05:47:56;;;;;;;2.13;1.23;;;18.20;71.30;;;;;;6188902;23;20079;-69
2021/11/18 05:50:22;;;;;;;3.35;1.30;;;18.20;71.30;;;;;;6164163;23;20072;-69
2021/11/18 05:52:48;;;;;;;3.10;1.23;;;18.10;71.20;;;;;;6214793;23;20001;-69
2021/11/18 05:55:15;;;;;;;2.08;1.17;;;18.10;71.20;;;;;;6189060;23;20340;-69
2021/11/18 05:57:42;;;;;;;2.75;1.20;;;18.20;71.50;;;;;;6188636;23;20051;-69
2021/11/18 06:00:10;;;;;;;2.15;1.40;;;18.10;71.20;;;;;;6189051;23;20004;-69
2021/11/18 06:02:36;;;;;;;3.15;1.20;;;18.10;71.20;;;;;;6188899;23;20023;-69
2021/11/18 06:05:04;;;;;;;2.05;1.25;;;18.10;71.30;;;;;;6188668;23;20050;-69
2021/11/18 06:07:30;;;;;;;3.88;1.80;;;18.10;71.30;;;;;;6214728;23;20008;-69
2021/11/18 06:09:56;;;;;;;3.10;1.20;;;18.10;71.40;;;;;;6188730;23;20000;-69
2021/11/18 06:12:22;;;;;;;2.60;1.15;;;18.10;71.30;;;;;;6215101;23;20011;-69
2021/11/18 06:14:47;;;;;;;3.03;1.20;;;18.10;71.40;;;;;;6214958;23;20012;-69
2021/11/18 06:17:13;;;;;;;1.60;1.15;;;18.10;71.30;;;;;;6215146;23;20455;-69
2021/11/18 06:19:38;;;;;;;3.47;0.98;;;18.10;71.40;;;;;;6188212;23;20005;-69
2021/11/18 06:22:04;;;;;;;3.97;1.48;;;18.10;71.40;;;;;;6214619;23;19996;-69
2021/11/18 06:24:30;;;;;;;2.65;1.38;;;18.10;71.40;;;;;;6163644;23;20008;-69
2021/11/18 06:26:56;;;;;;;5.85;1.25;;;18.10;71.40;;;;;;6163258;23;20040;-69
2021/11/18 06:29:22;;;;;;;2.75;1.08;;;18.10;71.40;;;;;;6163982;23;20440;-69
2021/11/18 06:31:52;;;;;;;2.58;1.10;;;18.10;71.40;;;;;;6188486;23;20355;-69
2021/11/18 06:34:18;;;;;;;1.50;1.00;;;18.10;71.50;;;;;;6188671;23;20336;-69
2021/11/18 06:36:44;;;;;;;3.00;1.48;;;18.10;71.50;;;;;;6187893;23;20011;-69
2021/11/18 06:39:11;;;;;;;2.50;1.30;;;18.10;71.50;;;;;;6188275;23;20011;-69
2021/11/18 06:41:36;;;;;;;2.05;0.98;;;18.10;71.50;;;;;;6163495;23;20001;-69
2021/11/18 06:44:02;;;;;;;2.72;1.10;;;18.10;71.60;;;;;;6188376;23;20317;-69
2021/11/18 06:46:28;;;;;;;3.08;1.30;;;18.10;71.50;;;;;;6188356;23;20516;-69
2021/11/18 06:48:54;;;;;;;3.08;1.35;;;18.10;71.50;;;;;;6213557;23;20016;-69
2021/11/18 06:51:22;;;;;;;2.38;1.15;;;18.10;71.60;;;;;;6187277;23;20001;-69
2021/11/18 06:53:48;;;;;;;4.00;1.60;;;18.10;71.60;;;;;;6187443;23;20060;-69
2021/11/18 06:56:13;;;;;;;3.28;1.30;;;18.10;71.60;;;;;;6213738;23;20040;-69
2021/11/18 06:58:39;;;;;;;2.75;1.30;;;18.10;71.60;;;;;;6187342;23;20015;-69
2021/11/18 07:01:05;;;;;;;2.10;1.20;;;18.10;71.70;;;;;;6162511;23;20000;-69
2021/11/18 07:03:31;;;;;;;1.75;1.15;;;18.10;71.60;;;;;;6213723;23;20336;-69
2021/11/18 07:05:56;;;;;;;1.77;1.23;;;18.10;71.60;;;;;;6186934;23;21135;-69
2021/11/18 07:08:22;;;;;;;3.33;1.48;;;18.10;71.70;;;;;;6213614;23;20032;-69
2021/11/18 07:10:47;;;;;;;3.67;1.13;;;18.10;71.70;;;;;;6210426;23;20519;-69
2021/11/18 07:13:21;;;;;;;3.47;1.33;;;18.10;71.70;;;;;;6161964;23;20042;-69
2021/11/18 07:15:47;;;;;;;5.32;1.20;;;18.10;71.60;;;;;;6213215;23;20634;-69
2021/11/18 07:18:13;;;;;;;3.88;1.00;;;18.10;71.50;;;;;;6186621;23;21856;-69
2021/11/18 07:20:39;;;;;;;2.92;1.33;;;18.10;71.50;;;;;;6185970;23;20111;-69
2021/11/18 07:23:05;;;;;;;2.15;1.13;;;18.00;71.50;;;;;;6186281;23;20001;-69
2021/11/18 07:25:31;;;;;;;3.33;1.10;;;18.10;71.50;;;;;;6161449;23;20008;-69
2021/11/18 07:27:59;;;;;;;2.10;1.00;;;18.10;71.50;;;;;;6186481;23;20051;-69
2021/11/18 07:30:25;;;;;;;1.50;0.80;;;18.10;71.50;;;;;;6213008;23;20008;-69
2021/11/18 07:32:51;;;;;;;2.08;1.00;;;18.10;71.50;;;;;;6212509;23;20000;-69
2021/11/18 07:35:16;;;;;;;2.47;1.10;;;18.00;71.30;;;;;;6186060;23;20051;-69
2021/11/18 07:37:42;;;;;;;2.90;1.20;;;18.10;71.40;;;;;;6186834;23;20027;-69
2021/11/18 07:40:09;;;;;;;1.40;0.85;;;18.10;71.40;;;;;;6212998;23;20067;-69
2021/11/18 07:42:35;;;;;;;1.00;0.90;;;18.10;71.30;;;;;;6161600;23;19996;-69
2021/11/18 07:45:01;;;;;;;1.85;0.85;;;18.10;71.30;;;;;;6187164;23;20012;-69
2021/11/18 07:47:26;;;;;;;2.95;1.30;;;18.10;71.30;;;;;;6188570;23;20007;-69
2021/11/18 07:49:53;;;;;;;3.15;1.38;;;18.10;71.20;;;;;;6214364;23;20352;-69
2021/11/18 07:52:18;;;;;;;2.95;1.08;;;18.10;71.20;;;;;;6188574;23;20008;-69
2021/11/18 07:54:44;;;;;;;2.10;0.80;;;18.10;71.20;;;;;;6188861;23;20012;-69
2021/11/18 07:57:10;;;;;;;3.20;0.88;;;18.10;71.20;;;;;;6215133;23;20004;-69
2021/11/18 07:59:35;;;;;;;7.35;1.52;;;18.10;71.10;;;;;;6216048;23;20004;-69
2021/11/18 08:02:01;;;;;;;7.03;2.50;;;18.10;71.20;;;;;;6216245;23;20031;-69
2021/11/18 08:04:27;;;;;;;11.07;2.13;;;18.10;71.20;;;;;;6189427;23;20076;-69
2021/11/18 08:06:52;;;;;;;11.43;2.30;;;18.10;71.20;;;;;;6189717;23;20051;-69
2021/11/18 08:09:19;;;;;;;11.45;2.30;;;18.20;71.40;;;;;;6189738;23;20336;-69
2021/11/18 08:11:50;;;;;;;14.23;2.55;;;18.20;71.20;;;;;;6190062;23;20040;-69
2021/11/18 08:14:16;;;;;;;7.68;2.67;;;18.20;71.10;;;;;;6164898;23;20000;-69
2021/11/18 08:16:42;;;;;;;9.45;2.17;;;18.20;71.10;;;;;;6165085;23;20029;-69
2021/11/18 08:19:08;;;;;;;10.82;3.03;;;18.20;71.10;;;;;;6164289;23;20427;-69
2021/11/18 08:21:34;;;;;;;10.13;2.22;;;18.20;71.00;;;;;;6189726;23;20450;-69
2021/11/18 08:24:00;;;;;;;9.20;2.80;;;18.20;71.00;;;;;;6189503;23;20001;-69
2021/11/18 08:26:26;;;;;;;7.18;2.10;;;18.30;71.10;;;;;;6164717;23;20013;-69
2021/11/18 08:28:52;;;;;;;8.65;2.35;;;18.30;71.10;;;;;;6189507;23;20000;-69
2021/11/18 08:31:18;;;;;;;5.75;1.98;;;18.20;71.00;;;;;;6189638;23;20384;-69
2021/11/18 08:33:43;;;;;;;12.65;2.10;;;18.30;71.00;;;;;;6189321;23;20000;-69
2021/11/18 08:36:09;;;;;;;14.10;2.67;;;18.20;70.90;;;;;;6189174;23;20494;-69
2021/11/18 08:38:35;;;;;;;7.75;2.78;;;18.20;71.00;;;;;;6215951;23;20005;-69
2021/11/18 08:41:03;;;;;;;8.95;2.38;;;18.30;71.00;;;;;;6189429;23;19997;-69
2021/11/18 08:43:29;;;;;;;7.13;2.45;;;18.20;70.90;;;;;;6164900;23;20083;-69
2021/11/18 08:45:55;;;;;;;8.43;2.58;;;18.30;71.00;;;;;;6189638;23;20000;-69
2021/11/18 08:48:21;;;;;;;7.07;1.95;;;18.20;70.90;;;;;;6215396;23;20047;-69
2021/11/18 08:50:47;;;;;;;6.25;1.90;;;18.30;70.90;;;;;;6189454;23;20004;-69
2021/11/18 08:53:13;;;;;;;10.73;2.20;;;18.30;71.90;;;;;;6189333;23;20031;-69
2021/11/18 08:55:39;;;;;;;7.72;1.92;;;18.30;70.90;;;;;;6188875;23;20001;-69
2021/11/18 08:58:05;;;;;;;11.45;2.10;;;18.20;70.80;;;;;;6215549;23;20004;-69
2021/11/18 09:01:00;;;;;;;6.90;1.77;;;18.30;70.80;;;;;;6215799;23;20046;-69
2021/11/18 09:03:27;;;;;;;5.85;1.95;;;18.30;71.20;;;;;;6199645;23;20079;-69
2021/11/18 09:05:52;;;;;;;7.47;2.10;;;18.30;70.80;;;;;;6164501;23;19997;-69
2021/11/18 09:08:19;;;;;;;4.35;1.80;;;18.30;70.80;;;;;;6189051;23;20087;-69
2021/11/18 09:10:45;;;;;;;6.75;2.05;;;18.30;70.80;;;;;;6189288;23;20317;-69
2021/11/18 09:13:11;;;;;;;6.07;1.80;;;18.30;70.80;;;;;;6189079;23;20005;-69
2021/11/18 09:15:37;;;;;;;6.03;1.65;;;18.30;70.80;;;;;;6188862;23;20451;-69
2021/11/18 09:18:05;;;;;;;5.50;1.70;;;18.30;70.70;;;;;;6164326;23;20000;-69
2021/11/18 09:20:31;;;;;;;5.25;1.92;;;18.30;70.70;;;;;;6189450;23;20000;-69
2021/11/18 09:22:58;;;;;;;4.43;1.83;;;18.30;70.70;;;;;;6215449;23;20335;-69
2021/11/18 09:25:27;;;;;;;8.90;2.25;;;18.30;70.70;;;;;;6164389;23;20461;-69
2021/11/18 09:27:53;;;;;;;6.75;1.90;;;18.30;70.70;;;;;;6189246;23;20004;-69
2021/11/18 09:30:27;;;;;;;7.25;1.90;;;18.30;70.70;;;;;;6163950;23;20039;-69
2021/11/18 09:32:53;;;;;;;5.22;1.73;;;18.30;70.60;;;;;;6188980;23;20000;-69
2021/11/18 09:35:22;;;;;;;4.38;1.70;;;18.30;70.60;;;;;;6188743;23;20336;-69
2021/11/18 09:37:48;;;;;;;5.78;2.25;;;18.30;70.60;;;;;;6189429;23;20428;-69
2021/11/18 09:40:17;;;;;;;5.78;1.92;;;18.30;70.60;;;;;;6188637;23;20067;-69
2021/11/18 09:43:01;;;;;;;4.85;1.80;;;18.30;70.60;;;;;;6164638;23;20023;-69
2021/11/18 09:45:27;;;;;;;7.65;2.10;;;18.30;70.50;;;;;;6214928;23;20063;-69
2021/11/18 09:48:14;;;;;;;5.38;1.60;;;18.30;70.60;;;;;;6189044;23;20439;-69
2021/11/18 09:50:47;;;;;;;6.28;2.20;;;18.30;70.50;;;;;;6215380;23;20068;-69
2021/11/18 09:53:27;;;;;;;7.13;1.70;;;18.30;70.60;;;;;;6189409;23;20000;-69
2021/11/18 09:56:08;;;;;;;3.53;1.75;;;18.30;70.50;;;;;;6188885;23;20432;-69
2021/11/18 09:58:46;;;;;;;6.25;1.50;;;18.30;70.50;;;;;;6215253;23;20076;-69
2021/11/18 10:01:53;;;;;;;5.60;2.08;;;18.30;71.50;;;;;;6189602;23;20001;-69
2021/11/18 10:04:36;;;;;;;7.30;1.75;;;18.30;70.30;;;;;;6198708;23;20004;-69
2021/11/18 10:07:06;;;;;;;3.80;1.48;;;18.30;70.50;;;;;;6214928;23;20462;-69
2021/11/18 10:09:50;;;;;;;5.05;1.63;;;18.30;70.50;;;;;;6188416;23;20008;-69
2021/11/18 10:12:54;;;;;;;2.47;1.30;;;18.30;70.50;;;;;;6214789;23;20032;-69
2021/11/18 10:15:22;;;;;;;6.18;1.80;;;18.40;70.40;;;;;;6188183;23;20051;-69
2021/11/18 10:18:00;;;;;;;4.43;1.50;;;18.30;70.50;;;;;;6188822;23;20000;-69
2021/11/18 10:20:31;;;;;;;4.85;1.77;;;18.30;70.50;;;;;;6165697;23;20005;-69
2021/11/18 10:23:03;;;;;;;3.95;1.30;;;18.30;70.40;;;;;;6164043;23;20028;-69
2021/11/18 10:25:32;;;;;;;2.92;1.13;;;18.30;70.50;;;;;;6188717;23;20408;-69
2021/11/18 10:28:20;;;;;;;6.85;1.95;;;18.30;70.40;;;;;;6188703;23;20004;-69
2021/11/18 10:31:06;;;;;;;3.90;1.40;;;18.40;70.50;;;;;;6194174;23;20008;-69
2021/11/18 10:33:40;;;;;;;3.85;1.38;;;18.40;70.40;;;;;;6214802;23;20001;-69
2021/11/18 10:36:36;;;;;;;4.47;1.52;;;18.40;70.40;;;;;;6214595;23;20550;-69
2021/11/18 10:39:30;;;;;;;3.15;1.42;;;18.40;70.30;;;;;;6131587;23;20423;-69
2021/11/18 10:41:59;;;;;;;3.22;1.42;;;18.40;70.20;;;;;;6152611;23;20002;-69
2021/11/18 10:44:31;;;;;;;2.95;1.25;;;18.30;70.40;;;;;;6102914;23;20136;-69
2021/11/18 10:47:01;;;;;;;5.45;1.55;;;18.40;70.30;;;;;;6103541;23;20005;-69
2021/11/18 10:50:02;;;;;;;3.35;1.30;;;18.40;70.30;;;;;;6127718;23;20033;-69
2021/11/18 10:52:36;;;;;;;1.70;1.08;;;18.40;70.30;;;;;;6131367;23;20060;-69
2021/11/18 10:55:07;;;;;;;4.88;1.45;;;18.40;70.40;;;;;;6152169;23;20012;-69
2021/11/18 10:57:32;;;;;;;4.03;1.60;;;18.40;70.30;;;;;;6151923;23;20039;-69
2021/11/18 11:00:21;;;;;;;2.75;1.17;;;18.40;70.20;;;;;;6103344;23;20006;-69
2021/11/18 11:02:47;;;;;;;4.25;1.27;;;18.40;70.00;;;;;;6127906;23;20012;-69
2021/11/18 11:05:32;;;;;;;3.95;1.58;;;18.30;70.20;;;;;;6152076;23;20041;-69
2021/11/18 11:07:59;;;;;;;2.33;1.05;;;18.40;70.10;;;;;;6104184;23;20476;-69
2021/11/18 11:10:26;;;;;;;3.58;1.50;;;18.40;70.20;;;;;;6127676;23;20012;-69
2021/11/18 11:13:08;;;;;;;3.97;1.50;;;18.40;70.20;;;;;;6127281;23;20009;-69
2021/11/18 11:15:40;;;;;;;2.72;1.25;;;18.40;70.10;;;;;;6144665;23;20008;-69
2021/11/18 11:18:24;;;;;;;3.17;1.08;;;18.40;70.10;;;;;;6188050;23;20008;-69
2021/11/18 11:21:07;;;;;;;3.03;1.00;;;18.50;70.10;;;;;;6163854;23;19997;-69
2021/11/18 11:24:10;;;;;;;3.05;1.23;;;18.40;70.10;;;;;;6188082;23;20079;-69
2021/11/18 11:26:54;;;;;;;2.95;1.30;;;18.40;70.00;;;;;;6214049;23;20009;-69
2021/11/18 11:29:46;;;;;;;4.03;1.40;;;18.40;70.10;;;;;;6214399;23;20005;-69
2021/11/18 11:32:41;;;;;;;3.25;1.60;;;18.40;70.00;;;;;;6190223;23;20000;-69
2021/11/18 11:35:30;;;;;;;3.83;1.30;;;18.40;70.10;;;;;;6214225;23;20031;-69
2021/11/18 11:38:11;;;;;;;3.80;1.52;;;18.40;70.10;;;;;;6165597;23;20001;-69
2021/11/18 11:40:55;;;;;;;3.80;1.38;;;18.40;70.00;;;;;;6188338;23;20001;-69
2021/11/18 11:43:57;;;;;;;4.05;1.23;;;18.40;70.10;;;;;;6214292;23;19997;-69
2021/11/18 11:46:31;;;;;;;3.65;1.40;;;18.40;70.00;;;;;;6185472;23;20080;-69
2021/11/18 11:49:02;;;;;;;2.22;1.45;;;18.40;70.10;;;;;;6214365;23;20070;-69
2021/11/18 11:51:34;;;;;;;3.45;1.33;;;18.40;70.00;;;;;;6187712;23;20001;-69
2021/11/18 11:54:09;;;;;;;3.45;1.33;;;18.40;70.00;;;;;;6214493;23;20031;-69
2021/11/18 11:56:39;;;;;;;2.05;1.33;;;18.40;70.00;;;;;;6213933;23;20444;-69
2021/11/18 11:59:14;;;;;;;2.10;1.13;;;18.40;69.90;;;;;;6187690;23;20490;-69
2021/11/18 12:02:18;;;;;;;1.75;1.10;;;18.40;69.90;;;;;;6189689;23;20001;-69
2021/11/18 12:04:51;;;;;;;3.97;1.20;;;18.50;69.80;;;;;;6192179;23;20005;-69
2021/11/18 12:07:31;;;;;;;2.78;1.20;;;18.40;69.90;;;;;;6164053;23;20003;-69
2021/11/18 12:10:03;;;;;;;2.22;1.10;;;18.40;69.80;;;;;;6213941;23;20001;-69
2021/11/18 12:13:06;;;;;;;2.42;1.25;;;18.40;69.90;;;;;;6187565;23;20336;-69
2021/11/18 12:15:32;;;;;;;2.37;1.10;;;18.40;69.70;;;;;;6166292;23;20007;-69
2021/11/18 12:18:45;;;;;;;2.90;1.27;;;18.40;69.90;;;;;;6163424;23;20232;-69
2021/11/18 12:21:11;;;;;;;1.95;1.20;;;18.50;69.70;;;;;;6203879;23;20348;-69
2021/11/18 12:24:11;;;;;;;1.58;1.00;;;18.40;69.90;;;;;;6163023;23;20004;-69
2021/11/18 12:26:47;;;;;;;4.40;1.20;;;18.40;69.70;;;;;;6214202;23;20012;-69
2021/11/18 12:29:16;;;;;;;2.83;1.27;;;18.40;69.90;;;;;;6187656;23;20499;-69
2021/11/18 12:32:15;;;;;;;2.65;1.42;;;18.40;69.90;;;;;;6214770;23;20001;-69
2021/11/18 12:34:52;;;;;;;1.50;0.93;;;18.40;69.60;;;;;;6192933;23;20001;-69
2021/11/18 12:37:24;;;;;;;3.55;1.17;;;18.40;69.70;;;;;;6189502;23;20486;-69
2021/11/18 12:40:20;;;;;;;2.90;1.63;;;18.50;69.80;;;;;;6215564;23;20001;-69
2021/11/18 12:42:57;;;;;;;3.53;1.35;;;18.40;69.70;;;;;;6216004;23;20243;-69
2021/11/18 12:45:41;;;;;;;3.63;1.20;;;18.40;69.70;;;;;;6215868;23;20067;-69
2021/11/18 12:48:46;;;;;;;2.67;1.33;;;18.40;69.70;;;;;;6167561;23;19997;-69
2021/11/18 12:51:41;;;;;;;2.25;1.10;;;18.40;69.60;;;;;;6094705;23;20002;-69
2021/11/18 12:54:10;;;;;;;2.30;1.13;;;18.40;69.70;;;;;;6070349;23;20013;-69
2021/11/18 12:57:13;;;;;;;2.85;1.30;;;18.40;69.80;;;;;;6094694;23;20378;-69
2021/11/18 12:59:47;;;;;;;2.38;1.15;;;18.40;69.60;;;;;;6094608;23;20006;-69